createdAt,value
2019-03-23T00:02:00.687Z,9.00
2019-03-23T00:04:28.349Z,9.00
2019-03-23T00:06:56.163Z,8.90
2019-03-23T00:09:24.158Z,8.90
2019-03-23T00:11:51.911Z,8.80
2019-03-23T00:14:19.617Z,8.80
2019-03-23T00:16:47.805Z,8.80
2019-03-23T00:19:15.751Z,8.80
2019-03-23T00:21:43.321Z,8.80
2019-03-23T00:24:11.207Z,8.80
2019-03-23T00:26:38.983Z,8.80
2019-03-23T00:29:06.772Z,8.90
2019-03-23T00:31:34.552Z,8.90
2019-03-23T00:34:02.318Z,8.90
2019-03-23T00:36:30.019Z,9.00
2019-03-23T00:38:57.815Z,9.00
2019-03-23T00:41:25.539Z,8.90
2019-03-23T00:43:53.260Z,8.80
2019-03-23T00:46:21.362Z,8.80
2019-03-23T00:48:49.035Z,8.80
2019-03-23T00:51:16.996Z,8.80
2019-03-23T00:53:44.615Z,8.80
2019-03-23T00:56:12.283Z,8.80
2019-03-23T00:58:39.943Z,8.80
2019-03-23T01:01:07.495Z,8.90
2019-03-23T01:06:02.845Z,9.30
2019-03-23T01:10:58.164Z,8.80
2019-03-23T01:13:25.790Z,8.90
2019-03-23T01:15:53.475Z,8.80
2019-03-23T01:18:21.162Z,8.80
2019-03-23T01:20:49.977Z,8.60
2019-03-23T01:23:18.118Z,8.50
2019-03-23T01:25:45.926Z,8.40
2019-03-23T01:28:13.729Z,8.40
2019-03-23T01:30:41.514Z,8.30
2019-03-23T01:33:09.251Z,8.20
2019-03-23T01:35:36.949Z,8.10
2019-03-23T01:38:04.727Z,7.90
2019-03-23T01:40:32.694Z,7.80
2019-03-23T01:43:00.459Z,7.50
2019-03-23T01:45:28.043Z,7.50
2019-03-23T01:47:56.083Z,7.60
2019-03-23T01:50:23.790Z,7.60
2019-03-23T01:55:19.301Z,7.80
2019-03-23T01:57:47.055Z,7.80
2019-03-23T02:00:15.825Z,7.80
2019-03-23T02:02:43.541Z,7.80
2019-03-23T02:05:11.465Z,7.80
2019-03-23T02:07:39.202Z,7.80
2019-03-23T02:10:07.225Z,7.70
2019-03-23T02:12:35.119Z,7.70
2019-03-23T02:15:03.303Z,7.70
2019-03-23T02:17:31.123Z,7.60
2019-03-23T02:19:58.985Z,7.70
2019-03-23T02:22:26.600Z,7.70
2019-03-23T02:24:54.352Z,7.70
2019-03-23T02:27:22.147Z,7.70
2019-03-23T02:29:49.850Z,7.70
2019-03-23T02:32:17.587Z,7.70
2019-03-23T02:34:45.283Z,7.70
2019-03-23T02:37:13.019Z,7.70
2019-03-23T02:39:40.719Z,7.80
2019-03-23T02:42:08.312Z,7.80
2019-03-23T02:44:36.010Z,7.80
2019-03-23T02:47:03.907Z,7.80
2019-03-23T02:49:31.764Z,7.70
2019-03-23T02:51:59.590Z,7.70
2019-03-23T02:54:27.408Z,7.80
2019-03-23T02:56:55.447Z,7.80
2019-03-23T02:59:23.331Z,7.80
2019-03-23T03:01:51.100Z,7.80
2019-03-23T03:04:18.901Z,7.80
2019-03-23T03:06:46.736Z,7.80
2019-03-23T03:09:14.569Z,7.80
2019-03-23T03:11:42.154Z,7.90
2019-03-23T03:14:09.808Z,7.90
2019-03-23T03:16:37.501Z,7.90
2019-03-23T03:19:05.230Z,8.00
2019-03-23T03:21:32.952Z,8.00
2019-03-23T03:24:00.629Z,7.90
2019-03-23T03:26:28.404Z,8.00
2019-03-23T03:28:56.027Z,8.00
2019-03-23T03:31:23.722Z,8.00
2019-03-23T03:33:51.391Z,8.00
2019-03-23T03:36:19.153Z,8.10
2019-03-23T03:38:46.925Z,8.10
2019-03-23T03:41:14.721Z,8.10
2019-03-23T03:43:42.754Z,8.10
2019-03-23T03:46:10.548Z,8.10
2019-03-23T03:48:38.188Z,8.10
2019-03-23T03:51:05.830Z,8.20
2019-03-23T03:53:33.618Z,8.10
2019-03-23T03:56:01.450Z,8.10
2019-03-23T03:58:29.134Z,8.20
2019-03-23T04:00:56.976Z,8.20
2019-03-23T04:03:24.878Z,8.20
2019-03-23T04:05:52.679Z,8.30
2019-03-23T04:08:20.610Z,8.20
2019-03-23T04:10:48.473Z,8.20
2019-03-23T04:13:16.244Z,8.20
2019-03-23T04:15:43.957Z,8.20
2019-03-23T04:18:11.766Z,8.20
2019-03-23T04:20:39.640Z,8.20
2019-03-23T04:23:07.546Z,8.30
2019-03-23T04:25:35.276Z,8.30
2019-03-23T04:28:03.151Z,8.30
2019-03-23T04:30:31.091Z,8.30
2019-03-23T04:32:58.820Z,8.40
2019-03-23T04:35:26.294Z,8.40
2019-03-23T04:37:54.083Z,8.40
2019-03-23T04:40:21.863Z,8.50
2019-03-23T04:42:49.677Z,8.40
2019-03-23T04:45:17.237Z,8.40
2019-03-23T04:47:44.905Z,8.40
2019-03-23T04:50:13.144Z,8.40
2019-03-23T04:52:40.710Z,8.40
2019-03-23T04:55:09.783Z,8.40
2019-03-23T04:57:38.175Z,8.40
2019-03-23T05:00:06.719Z,8.40
2019-03-23T05:02:34.628Z,8.40
2019-03-23T05:05:02.594Z,8.40
2019-03-23T05:07:30.275Z,8.40
2019-03-23T05:09:58.326Z,8.40
2019-03-23T05:12:26.130Z,8.40
2019-03-23T05:14:53.926Z,8.40
2019-03-23T05:17:21.578Z,8.40
2019-03-23T05:19:49.291Z,8.50
2019-03-23T05:22:17.016Z,8.50
2019-03-23T05:24:44.718Z,8.50
2019-03-23T05:27:12.610Z,8.50
2019-03-23T05:29:41.400Z,8.50
2019-03-23T05:32:09.173Z,8.50
2019-03-23T05:34:37.057Z,8.50
2019-03-23T05:37:04.966Z,8.50
2019-03-23T05:39:32.670Z,8.50
2019-03-23T05:42:00.617Z,8.50
2019-03-23T05:44:28.497Z,8.50
2019-03-23T05:46:56.223Z,8.50
2019-03-23T05:49:23.962Z,8.60
2019-03-23T05:51:51.670Z,8.60
2019-03-23T05:54:19.685Z,8.50
2019-03-23T05:56:47.343Z,8.50
2019-03-23T05:59:15.223Z,8.50
2019-03-23T06:01:43.062Z,8.50
2019-03-23T06:04:10.725Z,8.60
2019-03-23T06:06:38.686Z,8.60
2019-03-23T06:09:06.659Z,8.60
2019-03-23T06:11:34.627Z,8.60
2019-03-23T06:14:02.644Z,8.70
2019-03-23T06:16:30.427Z,8.60
2019-03-23T06:18:58.627Z,8.50
2019-03-23T06:21:26.800Z,8.60
2019-03-23T06:23:54.768Z,8.70
2019-03-23T06:26:22.664Z,8.70
2019-03-23T06:28:50.743Z,8.60
2019-03-23T06:31:18.610Z,8.70
2019-03-23T06:33:46.406Z,8.70
2019-03-23T06:36:16.412Z,8.80
2019-03-23T06:38:44.417Z,8.80
2019-03-23T06:41:12.265Z,8.80
2019-03-23T06:43:40.167Z,8.90
2019-03-23T06:46:08.030Z,8.90
2019-03-23T06:48:35.966Z,8.90
2019-03-23T06:51:03.983Z,9.00
2019-03-23T06:53:31.708Z,9.00
2019-03-23T06:55:59.818Z,9.00
2019-03-23T06:58:27.519Z,9.10
2019-03-23T07:00:55.390Z,9.10
2019-03-23T07:03:23.040Z,9.10
2019-03-23T07:05:51.810Z,9.10
2019-03-23T07:08:19.591Z,9.20
2019-03-23T07:10:48.415Z,9.20
2019-03-23T07:13:16.080Z,9.10
2019-03-23T07:15:43.915Z,9.30
2019-03-23T07:18:11.741Z,9.30
2019-03-23T07:20:39.662Z,9.30
2019-03-23T07:23:07.328Z,9.40
2019-03-23T07:25:39.291Z,9.40
2019-03-23T07:28:08.006Z,9.40
2019-03-23T07:30:35.895Z,9.50
2019-03-23T07:33:04.045Z,9.50
2019-03-23T07:35:31.923Z,9.50
2019-03-23T07:37:59.717Z,9.50
2019-03-23T07:40:27.725Z,9.50
2019-03-23T07:42:55.770Z,9.50
2019-03-23T07:45:23.675Z,9.50
2019-03-23T07:47:51.730Z,9.50
2019-03-23T07:50:19.593Z,9.60
2019-03-23T07:52:47.406Z,9.70
2019-03-23T07:55:15.399Z,9.70
2019-03-23T07:57:43.454Z,9.70
2019-03-23T08:00:16.226Z,9.80
2019-03-23T08:02:44.218Z,9.80
2019-03-23T08:05:12.289Z,9.90
2019-03-23T08:07:40.215Z,10.00
2019-03-23T08:10:08.319Z,10.00
2019-03-23T08:12:36.612Z,10.10
2019-03-23T08:15:05.818Z,10.10
2019-03-23T08:17:33.720Z,10.10
2019-03-23T08:20:01.997Z,10.20
2019-03-23T08:22:30.734Z,10.30
2019-03-23T08:24:58.699Z,10.30
2019-03-23T08:27:26.457Z,10.30
2019-03-23T08:29:54.387Z,10.30
2019-03-23T08:32:22.333Z,10.20
2019-03-23T08:34:50.083Z,10.30
2019-03-23T08:37:17.843Z,10.20
2019-03-23T08:39:48.704Z,10.30
2019-03-23T08:42:15.700Z,10.30
2019-03-23T08:44:43.798Z,10.30
2019-03-23T08:47:11.537Z,10.40
2019-03-23T08:49:39.223Z,10.40
2019-03-23T08:52:07.076Z,10.50
2019-03-23T08:54:34.953Z,10.50
2019-03-23T08:57:02.562Z,10.60
2019-03-23T08:59:30.029Z,10.50
2019-03-23T09:01:57.605Z,10.60
2019-03-23T09:04:25.318Z,10.60
2019-03-23T09:06:52.778Z,10.60
2019-03-23T09:09:20.264Z,10.60
2019-03-23T09:11:47.729Z,10.60
2019-03-23T09:14:15.176Z,10.60
2019-03-23T09:16:42.865Z,10.60
2019-03-23T09:19:10.466Z,10.60
2019-03-23T09:21:38.365Z,10.80
2019-03-23T09:24:05.873Z,10.90
2019-03-23T09:26:33.446Z,11.10
2019-03-23T09:29:00.977Z,11.20
2019-03-23T09:31:28.483Z,11.30
2019-03-23T09:33:57.040Z,11.40
2019-03-23T09:36:24.785Z,11.50
2019-03-23T09:38:52.305Z,11.80
2019-03-23T09:41:19.914Z,11.90
2019-03-23T09:43:47.360Z,11.90
2019-03-23T09:46:14.921Z,11.90
2019-03-23T09:48:42.874Z,11.70
2019-03-23T09:51:10.795Z,11.80
2019-03-23T09:53:38.502Z,11.90
2019-03-23T09:56:06.387Z,12.00
2019-03-23T09:58:34.153Z,11.90
2019-03-23T10:01:01.919Z,12.00
2019-03-23T10:03:29.996Z,12.00
2019-03-23T10:05:57.860Z,12.00
2019-03-23T10:08:25.519Z,12.00
2019-03-23T10:10:53.258Z,12.10
2019-03-23T10:13:20.728Z,12.20
2019-03-23T10:15:48.326Z,12.30
2019-03-23T10:18:17.074Z,12.20
2019-03-23T10:20:45.033Z,12.20
2019-03-23T10:23:13.616Z,12.30
2019-03-23T10:25:41.171Z,12.30
2019-03-23T10:28:09.092Z,12.50
2019-03-23T10:30:36.786Z,12.80
2019-03-23T10:33:04.450Z,13.00
2019-03-23T10:35:32.106Z,13.10
2019-03-23T10:37:59.850Z,13.50
2019-03-23T10:40:32.560Z,13.50
2019-03-23T10:42:57.558Z,13.50
2019-03-23T10:45:25.549Z,13.80
2019-03-23T10:47:53.587Z,14.10
2019-03-23T10:50:21.911Z,14.70
2019-03-23T10:52:50.059Z,15.00
2019-03-23T10:55:17.935Z,14.80
2019-03-23T10:57:46.015Z,14.50
2019-03-23T11:00:14.461Z,14.60
2019-03-23T11:02:42.631Z,14.70
2019-03-23T11:05:10.572Z,14.70
2019-03-23T11:07:38.530Z,14.50
2019-03-23T11:10:07.236Z,14.30
2019-03-23T11:12:37.077Z,14.20
2019-03-23T11:15:05.779Z,14.30
2019-03-23T11:17:33.899Z,14.30
2019-03-23T11:20:01.837Z,14.00
2019-03-23T11:22:29.975Z,14.00
2019-03-23T11:24:57.929Z,13.90
2019-03-23T11:27:25.989Z,14.00
2019-03-23T11:29:53.815Z,14.00
2019-03-23T11:32:21.544Z,13.70
2019-03-23T11:34:49.244Z,13.50
2019-03-23T11:37:17.012Z,13.30
2019-03-23T11:39:45.079Z,13.00
2019-03-23T11:42:12.674Z,13.20
2019-03-23T11:44:40.366Z,13.50
2019-03-23T11:47:08.266Z,13.70
2019-03-23T11:49:36.077Z,14.20
2019-03-23T11:52:03.931Z,14.40
2019-03-23T11:54:31.763Z,14.00
2019-03-23T11:56:59.638Z,13.80
2019-03-23T11:59:27.466Z,13.70
2019-03-23T12:01:56.066Z,13.30
2019-03-23T12:04:25.177Z,13.30
2019-03-23T12:06:53.251Z,13.30
2019-03-23T12:09:20.950Z,13.50
2019-03-23T12:11:48.796Z,13.50
2019-03-23T12:14:16.536Z,13.70
2019-03-23T12:16:44.254Z,13.50
2019-03-23T12:19:11.922Z,13.50
2019-03-23T12:21:39.586Z,13.60
2019-03-23T12:24:08.608Z,13.70
2019-03-23T12:26:36.398Z,13.50
2019-03-23T12:29:04.097Z,13.60
2019-03-23T12:31:31.838Z,13.60
2019-03-23T12:33:59.702Z,13.70
2019-03-23T12:36:27.338Z,13.80
2019-03-23T12:38:55.262Z,13.70
2019-03-23T12:41:23.609Z,13.90
2019-03-23T12:43:51.421Z,14.00
2019-03-23T12:46:19.313Z,14.10
2019-03-23T12:48:47.030Z,14.30
2019-03-23T12:51:14.751Z,14.20
2019-03-23T12:53:42.667Z,14.20
2019-03-23T12:56:10.367Z,14.20
2019-03-23T12:58:38.731Z,14.20
2019-03-23T13:01:06.659Z,14.20
2019-03-23T13:03:34.408Z,14.20
2019-03-23T13:06:02.283Z,14.10
2019-03-23T13:08:29.947Z,13.90
2019-03-23T13:10:57.583Z,14.00
2019-03-23T13:13:25.243Z,14.10
2019-03-23T13:15:52.898Z,13.90
2019-03-23T13:18:27.043Z,13.90
2019-03-23T13:20:50.132Z,13.80
2019-03-23T13:23:18.115Z,13.90
2019-03-23T13:25:48.187Z,13.80
2019-03-23T13:28:16.157Z,13.80
2019-03-23T13:30:43.912Z,13.80
2019-03-23T13:33:12.838Z,13.80
2019-03-23T13:35:41.654Z,13.90
2019-03-23T13:38:09.355Z,13.80
2019-03-23T13:40:37.247Z,13.50
2019-03-23T13:43:05.067Z,13.40
2019-03-23T13:45:42.266Z,13.60
2019-03-23T13:48:02.269Z,13.50
2019-03-23T13:50:30.148Z,13.70
2019-03-23T13:52:57.875Z,13.70
2019-03-23T13:55:27.077Z,13.80
2019-03-23T13:57:54.758Z,13.60
2019-03-23T14:00:23.574Z,13.50
2019-03-23T14:02:53.689Z,13.50
2019-03-23T14:05:21.774Z,13.50
2019-03-23T14:07:49.812Z,13.60
2019-03-23T14:10:17.681Z,13.60
2019-03-23T14:12:48.337Z,13.40
2019-03-23T14:15:18.374Z,13.40
2019-03-23T14:17:46.138Z,13.40
2019-03-23T14:20:14.082Z,13.40
2019-03-23T14:22:42.165Z,13.50
2019-03-23T14:25:10.033Z,13.40
2019-03-23T14:27:37.889Z,13.30
2019-03-23T14:30:06.145Z,13.10
2019-03-23T14:32:34.258Z,13.10
2019-03-23T14:35:02.357Z,13.00
2019-03-23T14:37:30.264Z,13.00
2019-03-23T14:39:58.231Z,13.10
2019-03-23T14:42:26.199Z,13.10
2019-03-23T14:44:54.046Z,13.10
2019-03-23T14:47:22.050Z,13.00
2019-03-23T14:49:49.891Z,13.00
2019-03-23T14:52:17.897Z,12.70
2019-03-23T14:54:45.969Z,12.90
2019-03-23T14:57:13.743Z,12.90
2019-03-23T14:59:41.702Z,12.90
2019-03-23T15:02:09.206Z,13.00
2019-03-23T15:04:36.708Z,13.10
2019-03-23T15:07:04.569Z,13.20
2019-03-23T15:09:32.111Z,13.10
2019-03-23T15:11:59.764Z,13.10
2019-03-23T15:14:27.676Z,13.10
2019-03-23T15:16:55.509Z,13.00
2019-03-23T15:19:23.731Z,12.90
2019-03-23T15:21:51.568Z,13.00
2019-03-23T15:24:19.363Z,13.00
2019-03-23T15:26:47.079Z,13.00
2019-03-23T15:29:15.539Z,12.90
2019-03-23T15:31:43.334Z,12.80
2019-03-23T15:34:11.014Z,12.80
2019-03-23T15:36:39.092Z,12.80
2019-03-23T15:39:07.118Z,12.80
2019-03-23T15:41:35.141Z,12.70
2019-03-23T15:44:03.088Z,12.70
2019-03-23T15:46:30.929Z,12.80
2019-03-23T15:48:58.626Z,12.80
2019-03-23T15:51:26.498Z,12.80
2019-03-23T15:53:54.125Z,12.60
2019-03-23T15:56:21.891Z,12.70
2019-03-23T15:58:49.641Z,12.60
2019-03-23T16:01:17.574Z,12.50
2019-03-23T16:03:45.539Z,12.60
2019-03-23T16:06:13.275Z,12.60
2019-03-23T16:08:41.199Z,12.60
2019-03-23T16:11:08.890Z,12.60
2019-03-23T16:13:36.882Z,12.60
2019-03-23T16:16:04.854Z,12.60
2019-03-23T16:18:32.645Z,12.50
2019-03-23T16:21:00.379Z,12.60
2019-03-23T16:23:28.122Z,12.50
2019-03-23T16:25:55.783Z,12.50
2019-03-23T16:28:23.434Z,12.50
2019-03-23T16:30:52.354Z,12.50
2019-03-23T16:33:20.000Z,12.50
2019-03-23T16:35:47.654Z,12.60
2019-03-23T16:38:16.097Z,12.60
2019-03-23T16:40:43.644Z,12.60
2019-03-23T16:43:11.222Z,12.50
2019-03-23T16:45:38.767Z,12.50
2019-03-23T16:48:06.606Z,12.50
2019-03-23T16:50:34.409Z,12.50
2019-03-23T16:53:01.866Z,12.50
2019-03-23T16:55:29.463Z,12.40
2019-03-23T16:57:57.033Z,12.40
2019-03-23T17:00:35.101Z,12.40
2019-03-23T17:03:03.224Z,12.40
2019-03-23T17:05:30.909Z,12.40
2019-03-23T17:07:58.505Z,12.40
2019-03-23T17:10:26.972Z,12.30
2019-03-23T17:12:55.612Z,12.30
2019-03-23T17:15:23.180Z,12.40
2019-03-23T17:17:50.599Z,12.30
2019-03-23T17:20:18.009Z,12.40
2019-03-23T17:22:45.554Z,12.30
2019-03-23T17:25:13.133Z,12.30
2019-03-23T17:27:40.700Z,12.20
2019-03-23T17:30:09.037Z,12.20
2019-03-23T17:32:37.021Z,12.10
2019-03-23T17:35:05.107Z,12.10
2019-03-23T17:37:32.532Z,12.00
2019-03-23T17:40:00.457Z,12.00
2019-03-23T17:42:27.901Z,11.90
2019-03-23T17:44:55.459Z,11.90
2019-03-23T17:47:22.906Z,11.90
2019-03-23T17:49:50.440Z,11.90
2019-03-23T17:52:18.113Z,11.80
2019-03-23T17:54:45.562Z,11.70
2019-03-23T17:57:13.150Z,11.70
2019-03-23T17:59:40.569Z,11.50
2019-03-23T18:02:08.372Z,11.60
2019-03-23T18:04:35.825Z,11.50
2019-03-23T18:07:03.414Z,11.50
2019-03-23T18:09:31.137Z,11.40
2019-03-23T18:11:58.564Z,11.40
2019-03-23T18:14:26.091Z,11.30
2019-03-23T18:16:53.603Z,11.30
2019-03-23T18:19:21.046Z,11.30
2019-03-23T18:21:48.595Z,11.30
2019-03-23T18:24:16.020Z,11.30
2019-03-23T18:26:43.465Z,11.20
2019-03-23T18:29:10.996Z,11.20
2019-03-23T18:31:38.916Z,11.10
2019-03-23T18:34:06.338Z,11.00
2019-03-23T18:36:33.793Z,10.90
2019-03-23T18:39:01.313Z,10.80
2019-03-23T18:41:28.984Z,10.80
2019-03-23T18:43:56.537Z,10.70
2019-03-23T18:46:24.691Z,10.70
2019-03-23T18:48:52.172Z,10.70
2019-03-23T18:51:19.594Z,10.80
2019-03-23T18:53:47.021Z,10.70
2019-03-23T18:56:14.453Z,10.70
2019-03-23T18:58:42.035Z,10.70
2019-03-23T19:01:09.558Z,10.70
2019-03-23T19:03:37.291Z,10.80
2019-03-23T19:06:04.840Z,10.70
2019-03-23T19:08:33.365Z,10.70
2019-03-23T19:11:00.896Z,10.80
2019-03-23T19:13:37.498Z,10.80
2019-03-23T19:15:57.683Z,10.70
2019-03-23T19:18:25.195Z,10.60
2019-03-23T19:20:52.736Z,10.60
2019-03-23T19:23:20.162Z,10.60
2019-03-23T19:25:47.618Z,10.60
2019-03-23T19:28:15.254Z,10.70
2019-03-23T19:30:42.962Z,10.70
2019-03-23T19:33:10.510Z,10.70
2019-03-23T19:35:37.985Z,10.70
2019-03-23T19:38:05.474Z,10.70
2019-03-23T19:40:33.048Z,10.70
2019-03-23T19:43:00.593Z,10.70
2019-03-23T19:45:28.373Z,10.70
2019-03-23T19:47:55.822Z,10.70
2019-03-23T19:50:23.594Z,10.60
2019-03-23T19:52:51.712Z,10.60
2019-03-23T19:55:19.782Z,10.60
2019-03-23T19:57:47.978Z,10.60
2019-03-23T20:00:16.227Z,10.60
2019-03-23T20:02:44.929Z,10.60
2019-03-23T20:05:13.561Z,10.60
2019-03-23T20:07:41.451Z,10.60
2019-03-23T20:10:09.755Z,10.60
2019-03-23T20:12:37.885Z,10.50
2019-03-23T20:15:06.286Z,10.60
2019-03-23T20:17:34.021Z,10.60
2019-03-23T20:20:01.920Z,10.60
2019-03-23T20:22:29.611Z,10.50
2019-03-23T20:24:57.482Z,10.60
2019-03-23T20:27:25.507Z,10.50
2019-03-23T20:29:53.878Z,10.60
2019-03-23T20:32:22.011Z,10.60
2019-03-23T20:34:49.575Z,10.50
2019-03-23T20:37:17.440Z,10.50
2019-03-23T20:39:45.309Z,10.50
2019-03-23T20:42:13.943Z,10.60
2019-03-23T20:44:41.855Z,10.60
2019-03-23T20:47:10.386Z,10.60
2019-03-23T20:49:39.521Z,10.60
2019-03-23T20:52:08.013Z,10.60
2019-03-23T20:54:36.025Z,10.50
2019-03-23T20:57:03.673Z,10.50
2019-03-23T20:59:32.541Z,10.50
2019-03-23T21:02:00.274Z,10.50
2019-03-23T21:04:28.113Z,10.50
2019-03-23T21:06:56.216Z,10.50
2019-03-23T21:09:24.151Z,10.50
2019-03-23T21:11:51.940Z,10.50
2019-03-23T21:14:20.584Z,10.50
2019-03-23T21:16:48.971Z,10.50
2019-03-23T21:19:17.241Z,10.40
2019-03-23T21:21:46.114Z,10.40
2019-03-23T21:24:13.843Z,10.30
2019-03-23T21:26:41.821Z,10.30
2019-03-23T21:29:09.831Z,10.30
2019-03-23T21:31:37.689Z,10.30
2019-03-23T21:34:05.511Z,10.30
2019-03-23T21:36:33.190Z,10.30
2019-03-23T21:39:01.272Z,10.30
2019-03-23T21:41:31.236Z,10.30
2019-03-23T21:43:59.246Z,10.30
2019-03-23T21:46:28.434Z,10.40
2019-03-23T21:48:56.440Z,10.30
2019-03-23T21:51:24.295Z,10.30
2019-03-23T21:53:52.043Z,10.20
2019-03-23T21:56:19.647Z,10.20
2019-03-23T21:58:47.203Z,10.20
2019-03-23T22:01:14.888Z,10.10
2019-03-23T22:03:42.690Z,10.20
2019-03-23T22:06:10.882Z,10.20
2019-03-23T22:08:40.976Z,10.20
2019-03-23T22:11:09.381Z,10.10
2019-03-23T22:13:37.101Z,10.10
2019-03-23T22:16:05.319Z,10.10
2019-03-23T22:18:33.087Z,10.10
2019-03-23T22:21:00.768Z,10.10
2019-03-23T22:23:28.367Z,10.10
2019-03-23T22:25:56.068Z,10.10
2019-03-23T22:28:23.894Z,10.10
2019-03-23T22:30:51.848Z,10.10
2019-03-23T22:33:19.431Z,10.10
2019-03-23T22:35:47.026Z,10.10
2019-03-23T22:38:14.879Z,10.10
2019-03-23T22:40:42.707Z,10.10
2019-03-23T22:43:10.758Z,10.10
2019-03-23T22:45:38.864Z,10.10
2019-03-23T22:48:06.707Z,10.10
2019-03-23T22:50:34.576Z,10.00
2019-03-23T22:53:02.673Z,10.00
2019-03-23T22:55:30.563Z,10.00
2019-03-23T22:57:58.358Z,9.90
2019-03-23T23:00:42.955Z,9.90
2019-03-23T23:03:11.862Z,9.90
2019-03-23T23:05:40.644Z,9.80
2019-03-23T23:08:08.334Z,9.80
2019-03-23T23:10:37.353Z,9.80
2019-03-23T23:13:05.170Z,9.80
2019-03-23T23:15:33.079Z,9.80
2019-03-23T23:18:00.883Z,9.70
2019-03-23T23:20:28.495Z,9.70
2019-03-23T23:22:56.232Z,9.60
2019-03-23T23:25:23.816Z,9.70
2019-03-23T23:27:51.614Z,9.60
2019-03-23T23:30:19.437Z,9.60
2019-03-23T23:32:47.223Z,9.50
2019-03-23T23:35:16.323Z,9.50
2019-03-23T23:37:44.157Z,9.40
2019-03-23T23:40:13.937Z,9.40
2019-03-23T23:42:41.892Z,9.40
2019-03-23T23:45:15.788Z,9.40
2019-03-23T23:47:40.614Z,9.40
2019-03-23T23:50:08.743Z,9.40
2019-03-23T23:52:36.578Z,9.40
2019-03-23T23:55:04.622Z,9.30
2019-03-23T23:57:32.321Z,9.20
2019-03-23T23:59:59.987Z,9.30
